Time;durP1;ratioP1;P1;durP2;ratioP2;P2;SDS_P1;SDS_P2;PMS_P1;PMS_P2;Temp;Humidity;BMP_temperature;BMP_pressure;BME280_temperature;BME280_humidity;BME280_pressure;Samples;Min_cycle;Max_cycle;Signal;HPM_P1;HPM_P2
2021/06/28 00:01:04;;;;;;;2.70;1.30;;;21.90;99.90;;;;;;4972344;28;20487;-79
2021/06/28 00:03:32;;;;;;;1.00;1.00;;;21.80;99.90;;;;;;4968243;28;20538;-78
2021/06/28 00:06:03;;;;;;;1.47;1.37;;;21.80;99.90;;;;;;4973476;28;20451;-80
2021/06/28 00:08:31;;;;;;;1.37;1.27;;;21.90;99.90;;;;;;4967953;28;20454;-79
2021/06/28 00:11:00;;;;;;;1.87;1.10;;;22.00;99.90;;;;;;4975603;28;20879;-79
2021/06/28 00:13:31;;;;;;;1.20;1.10;;;22.00;99.90;;;;;;4975832;28;20968;-80
2021/06/28 00:16:14;;;;;;;1.70;1.60;;;22.00;99.90;;;;;;4970134;28;20918;-79
2021/06/28 00:18:42;;;;;;;1.47;1.40;;;22.00;99.90;;;;;;4972237;28;21204;-79
2021/06/28 00:21:13;;;;;;;1.97;1.70;;;21.90;99.90;;;;;;4965575;28;20484;-79
2021/06/28 00:23:42;;;;;;;1.47;1.37;;;21.60;1.00;;;;;;4972489;28;20451;-77
2021/06/28 00:26:10;;;;;;;1.63;1.50;;;21.50;99.90;;;;;;4972856;28;21097;-79
2021/06/28 00:28:38;;;;;;;2.23;1.30;;;21.50;99.90;;;;;;4976318;28;20518;-78
2021/06/28 00:31:08;;;;;;;2.30;1.40;;;21.70;99.90;;;;;;4966581;28;20528;-79
2021/06/28 00:33:38;;;;;;;1.83;1.33;;;21.90;1.00;;;;;;4988977;28;20454;-80
2021/06/28 00:36:08;;;;;;;2.00;1.63;;;22.00;41.80;;;;;;4970609;28;20472;-82
2021/06/28 00:38:37;;;;;;;1.50;1.40;;;22.10;68.00;;;;;;4966194;28;20524;-79
2021/06/28 00:41:05;;;;;;;1.50;1.40;;;22.10;32.20;;;;;;4970278;28;20470;-80
2021/06/28 00:43:33;;;;;;;1.83;1.27;;;22.20;24.70;;;;;;4972660;28;20488;-79
2021/06/28 00:46:02;;;;;;;1.60;1.50;;;22.10;1.00;;;;;;4960353;28;20457;-75
2021/06/28 00:48:30;;;;;;;2.00;1.80;;;22.10;28.10;;;;;;4972110;28;20451;-81
2021/06/28 00:50:58;;;;;;;1.70;1.60;;;22.10;1.00;;;;;;4977615;28;20447;-80
2021/06/28 00:53:27;;;;;;;1.57;1.47;;;22.00;1.00;;;;;;4971291;28;20478;-81
2021/06/28 00:56:08;;;;;;;1.70;1.60;;;22.10;35.30;;;;;;4965620;28;20460;-80
2021/06/28 00:58:38;;;;;;;1.50;1.40;;;22.20;1.00;;;;;;4974998;28;20468;-80
2021/06/28 01:01:07;;;;;;;2.23;1.40;;;22.20;1.00;;;;;;4973190;28;20452;-81
2021/06/28 01:03:36;;;;;;;2.80;1.93;;;22.30;99.90;;;;;;4972310;28;20476;-80
2021/06/28 01:06:05;;;;;;;1.63;1.43;;;22.30;1.00;;;;;;4977837;28;20511;-80
2021/06/28 01:08:34;;;;;;;1.23;1.20;;;22.40;1.00;;;;;;4971534;28;20456;-80
2021/06/28 01:11:04;;;;;;;2.37;1.50;;;22.30;83.60;;;;;;4971553;28;20459;-81
2021/06/28 01:13:33;;;;;;;1.60;1.50;;;22.30;99.90;;;;;;4972261;28;20467;-80
2021/06/28 01:16:01;;;;;;;2.07;1.80;;;22.30;99.90;;;;;;4970208;28;20457;-82
2021/06/28 01:18:30;;;;;;;3.20;1.50;;;22.30;99.90;;;;;;4970238;28;20495;-81
2021/06/28 01:21:00;;;;;;;1.73;1.63;;;22.30;99.90;;;;;;4969408;28;20455;-80
2021/06/28 01:23:31;;;;;;;3.47;1.50;;;22.20;1.00;;;;;;4978943;28;20469;-78
2021/06/28 01:26:02;;;;;;;1.90;1.57;;;22.30;99.90;;;;;;4969824;28;20461;-80
2021/06/28 01:28:31;;;;;;;1.80;1.70;;;22.20;99.90;;;;;;4967067;28;20452;-80
2021/06/28 01:31:01;;;;;;;1.60;1.50;;;22.20;99.90;;;;;;4972049;28;21125;-77
2021/06/28 01:33:30;;;;;;;2.60;1.40;;;22.10;99.90;;;;;;4971077;28;20986;-80
2021/06/28 01:35:58;;;;;;;1.80;1.70;;;22.00;99.90;;;;;;4970794;28;20979;-78
2021/06/28 01:38:27;;;;;;;1.60;1.50;;;22.20;99.90;;;;;;4973138;28;20465;-81
2021/06/28 01:40:56;;;;;;;3.50;1.67;;;22.00;99.90;;;;;;4983224;28;20480;-80
2021/06/28 01:43:25;;;;;;;1.63;1.53;;;22.00;99.90;;;;;;4970652;28;20538;-79
2021/06/28 01:45:54;;;;;;;1.67;1.50;;;22.10;99.90;;;;;;4969961;28;20456;-79
2021/06/28 01:48:22;;;;;;;2.87;1.73;;;22.10;99.90;;;;;;4969617;28;21144;-80
2021/06/28 01:50:51;;;;;;;1.60;1.47;;;22.10;1.00;;;;;;4966115;28;20466;-81
2021/06/28 01:53:19;;;;;;;3.30;1.60;;;22.00;1.00;;;;;;4973680;28;20444;-79
2021/06/28 01:55:48;;;;;;;1.90;1.70;;;22.10;99.90;;;;;;4975116;28;20962;-80
2021/06/28 01:58:17;;;;;;;1.60;1.50;;;22.00;99.90;;;;;;4968524;28;20913;-79
2021/06/28 02:00:49;;;;;;;2.10;1.80;;;22.00;99.90;;;;;;4967995;28;20462;-79
2021/06/28 02:03:18;;;;;;;1.67;1.57;;;22.00;99.90;;;;;;4972588;28;20482;-80
2021/06/28 02:05:49;;;;;;;1.80;1.70;;;22.00;99.90;;;;;;4971097;28;20496;-79
2021/06/28 02:08:19;;;;;;;2.50;1.33;;;21.90;99.90;;;;;;4971585;28;20461;-83
2021/06/28 02:10:50;;;;;;;2.40;1.67;;;22.00;1.00;;;;;;4952502;29;20508;-80
2021/06/28 02:13:22;;;;;;;2.10;1.50;;;22.00;99.90;;;;;;4965461;28;20451;-81
2021/06/28 02:15:52;;;;;;;3.47;1.63;;;22.10;99.90;;;;;;4972907;28;20827;-81
2021/06/28 02:18:21;;;;;;;1.63;1.43;;;22.10;99.90;;;;;;4980423;28;20461;-81
2021/06/28 02:20:50;;;;;;;1.80;1.70;;;22.10;66.50;;;;;;4976762;28;20462;-81
2021/06/28 02:23:27;;;;;;;1.80;1.70;;;22.20;18.50;;;;;;4978354;28;20528;-82
2021/06/28 02:25:57;;;;;;;1.60;1.50;;;22.10;99.90;;;;;;4977150;28;20494;-80
2021/06/28 02:28:29;;;;;;;1.93;1.83;;;22.00;1.00;;;;;;4978091;28;20510;-81
2021/06/28 02:30:58;;;;;;;3.97;2.00;;;22.10;1.00;;;;;;4980528;28;20519;-82
2021/06/28 02:33:28;;;;;;;1.80;1.70;;;22.10;1.00;;;;;;4981162;28;21140;-80
2021/06/28 02:35:57;;;;;;;1.77;1.67;;;22.00;1.00;;;;;;4974559;28;20459;-81
2021/06/28 02:38:25;;;;;;;2.30;1.70;;;22.00;1.00;;;;;;4976801;28;20530;-80
2021/06/28 02:40:54;;;;;;;1.80;1.70;;;21.90;1.00;;;;;;4970386;28;20440;-82
2021/06/28 02:43:23;;;;;;;2.27;1.70;;;22.00;1.00;;;;;;4981981;28;20482;-80
2021/06/28 02:45:52;;;;;;;2.23;2.00;;;22.00;1.00;;;;;;4976742;28;20538;-80
2021/06/28 02:48:21;;;;;;;2.00;1.83;;;22.00;1.00;;;;;;4978447;28;20535;-82
2021/06/28 02:50:50;;;;;;;2.90;1.50;;;22.00;99.90;;;;;;4985123;28;20465;-82
2021/06/28 02:53:19;;;;;;;1.70;1.60;;;22.00;99.90;;;;;;4984392;28;20442;-80
2021/06/28 02:55:50;;;;;;;2.90;1.93;;;22.00;99.90;;;;;;4981742;28;20806;-80
2021/06/28 02:58:19;;;;;;;1.93;1.83;;;21.90;1.00;;;;;;4976802;28;20502;-79
2021/06/28 03:00:48;;;;;;;1.63;1.53;;;21.90;1.00;;;;;;4976971;28;20462;-81
2021/06/28 03:03:17;;;;;;;1.57;1.47;;;21.80;1.00;;;;;;4973521;28;20495;-80
2021/06/28 03:05:45;;;;;;;1.60;1.47;;;21.80;1.00;;;;;;4968296;28;20464;-79
2021/06/28 03:08:17;;;;;;;2.63;1.73;;;21.80;1.00;;;;;;4967865;28;20447;-80
2021/06/28 03:10:45;;;;;;;2.03;1.87;;;21.80;1.00;;;;;;4973359;28;20456;-79
2021/06/28 03:13:13;;;;;;;1.70;1.60;;;21.70;1.00;;;;;;4973434;28;20540;-78
2021/06/28 03:15:41;;;;;;;2.33;2.07;;;21.80;1.00;;;;;;4964371;28;20461;-78
2021/06/28 03:18:09;;;;;;;1.60;1.50;;;21.80;99.90;;;;;;4970414;28;20498;-79
2021/06/28 03:20:39;;;;;;;1.70;1.60;;;21.80;1.00;;;;;;4968486;28;20466;-79
2021/06/28 03:23:11;;;;;;;1.73;1.60;;;21.80;99.90;;;;;;4975562;28;20608;-78
2021/06/28 03:25:40;;;;;;;1.73;1.30;;;21.80;99.90;;;;;;4972266;28;20505;-79
2021/06/28 03:28:08;;;;;;;1.67;1.57;;;21.70;99.90;;;;;;4974495;28;20466;-79
2021/06/28 03:30:36;;;;;;;1.60;1.50;;;21.80;99.90;;;;;;4974030;28;20451;-82
2021/06/28 03:33:05;;;;;;;1.87;1.77;;;21.80;99.90;;;;;;4971582;28;20487;-80
2021/06/28 03:35:34;;;;;;;1.60;1.50;;;21.80;99.90;;;;;;4960314;28;20449;-81
2021/06/28 03:38:04;;;;;;;1.70;1.60;;;21.70;1.00;;;;;;4972917;28;20468;-80
2021/06/28 03:40:33;;;;;;;1.50;1.40;;;21.70;99.90;;;;;;4973556;28;20464;-79
2021/06/28 03:43:04;;;;;;;1.43;1.33;;;21.70;99.90;;;;;;4973002;28;20477;-81
2021/06/28 03:45:32;;;;;;;9.60;1.70;;;21.70;99.90;;;;;;4974598;28;20518;-79
2021/06/28 03:48:01;;;;;;;1.20;1.20;;;21.80;99.90;;;;;;4981463;28;20464;-79
2021/06/28 03:50:29;;;;;;;1.57;1.47;;;21.80;99.90;;;;;;4960703;28;21306;-79
2021/06/28 03:52:57;;;;;;;1.90;1.80;;;21.80;99.90;;;;;;4977348;28;20502;-80
2021/06/28 03:55:27;;;;;;;1.33;1.23;;;21.80;99.90;;;;;;4973848;28;20439;-81
2021/06/28 03:57:55;;;;;;;1.57;1.47;;;21.70;99.90;;;;;;4974166;28;20865;-81
2021/06/28 04:00:25;;;;;;;1.90;1.70;;;21.80;99.90;;;;;;4976097;28;21033;-83
2021/06/28 04:02:56;;;;;;;2.47;2.13;;;21.80;99.90;;;;;;4970250;28;20486;-82
2021/06/28 04:05:24;;;;;;;1.70;1.60;;;21.70;99.90;;;;;;4969304;28;20483;-81
2021/06/28 04:07:53;;;;;;;2.63;1.57;;;21.80;99.90;;;;;;4981507;28;20501;-82
2021/06/28 04:10:24;;;;;;;1.50;1.40;;;21.80;99.90;;;;;;4973335;28;20594;-83
2021/06/28 04:12:55;;;;;;;1.70;1.60;;;21.80;1.00;;;;;;4972334;28;20499;-81
2021/06/28 04:15:24;;;;;;;1.60;1.50;;;21.80;99.90;;;;;;4972107;28;20441;-81
2021/06/28 04:17:54;;;;;;;1.60;1.50;;;21.80;99.90;;;;;;4976350;28;20498;-82
2021/06/28 04:20:25;;;;;;;1.60;1.50;;;21.80;99.90;;;;;;4974275;28;20447;-80
2021/06/28 04:22:54;;;;;;;5.93;2.13;;;21.80;28.50;;;;;;4973270;28;20466;-80
2021/06/28 04:25:24;;;;;;;1.67;1.57;;;21.80;1.00;;;;;;4974025;28;20469;-80
2021/06/28 04:27:53;;;;;;;2.40;1.63;;;21.80;99.90;;;;;;4973801;28;21105;-79
2021/06/28 04:30:23;;;;;;;1.67;1.57;;;21.80;99.90;;;;;;4969856;28;20803;-80
2021/06/28 04:32:52;;;;;;;1.90;1.43;;;21.80;99.90;;;;;;4972166;28;20527;-82
2021/06/28 04:35:22;;;;;;;1.90;1.80;;;21.80;1.00;;;;;;4970286;28;21039;-80
2021/06/28 04:37:51;;;;;;;2.20;1.93;;;21.80;1.00;;;;;;4978906;28;20514;-79
2021/06/28 04:40:23;;;;;;;1.80;1.70;;;21.80;1.00;;;;;;4974299;28;20462;-78
2021/06/28 04:42:52;;;;;;;1.73;1.57;;;21.80;33.10;;;;;;4974740;28;20482;-79
2021/06/28 04:45:24;;;;;;;1.87;1.67;;;21.80;18.10;;;;;;4968843;28;20472;-76
2021/06/28 04:47:52;;;;;;;2.20;2.00;;;21.80;1.00;;;;;;4973022;28;20962;-76
2021/06/28 04:50:23;;;;;;;1.80;1.70;;;21.70;99.90;;;;;;4966733;28;20460;-76
2021/06/28 04:52:51;;;;;;;1.77;1.67;;;21.60;99.90;;;;;;4970309;28;20568;-76
2021/06/28 04:55:20;;;;;;;2.53;2.13;;;21.60;1.00;;;;;;4962296;28;20461;-76
2021/06/28 04:57:49;;;;;;;1.80;1.70;;;21.40;99.90;;;;;;4965812;28;20524;-75
2021/06/28 05:00:20;;;;;;;1.80;1.70;;;21.30;99.90;;;;;;4968650;28;20456;-76
2021/06/28 05:02:49;;;;;;;1.87;1.77;;;21.20;1.00;;;;;;4978590;28;20470;-75
2021/06/28 05:05:18;;;;;;;1.90;1.80;;;21.30;1.00;;;;;;4968101;28;20472;-76
2021/06/28 05:07:46;;;;;;;1.87;1.73;;;21.30;1.00;;;;;;4970230;28;20996;-76
2021/06/28 05:10:16;;;;;;;1.60;1.50;;;21.30;1.00;;;;;;4972350;28;20460;-76
2021/06/28 05:12:44;;;;;;;1.87;1.77;;;21.30;99.90;;;;;;4978832;28;20808;-76
2021/06/28 05:15:14;;;;;;;2.77;2.13;;;21.40;99.90;;;;;;4967681;28;20519;-76
2021/06/28 05:17:43;;;;;;;1.50;1.40;;;21.50;99.90;;;;;;4972567;28;20453;-75
2021/06/28 05:20:14;;;;;;;2.20;1.73;;;21.40;99.90;;;;;;4969911;28;20942;-76
2021/06/28 05:22:43;;;;;;;2.23;1.70;;;21.50;99.90;;;;;;4966383;28;20471;-77
2021/06/28 05:25:13;;;;;;;2.00;1.40;;;21.50;99.90;;;;;;4968895;28;20511;-76
2021/06/28 05:27:41;;;;;;;1.93;1.70;;;21.50;1.00;;;;;;4970693;28;20439;-75
2021/06/28 05:30:12;;;;;;;1.60;1.40;;;21.50;1.00;;;;;;4967903;28;20478;-76
2021/06/28 05:32:40;;;;;;;1.57;1.47;;;21.50;1.00;;;;;;4964606;28;20475;-77
2021/06/28 05:35:10;;;;;;;2.40;1.60;;;21.60;1.00;;;;;;4965626;28;20451;-77
2021/06/28 05:37:40;;;;;;;2.00;1.80;;;21.60;99.90;;;;;;4963757;28;20467;-76
2021/06/28 05:40:10;;;;;;;6.37;1.70;;;21.50;99.90;;;;;;4968033;28;20480;-77
2021/06/28 05:42:39;;;;;;;1.90;1.70;;;21.50;1.00;;;;;;4976263;28;20475;-76
2021/06/28 05:45:09;;;;;;;3.80;3.30;;;21.60;99.90;;;;;;4971551;28;21002;-76
2021/06/28 05:47:37;;;;;;;1.50;1.40;;;21.60;1.00;;;;;;4985815;28;20471;-76
2021/06/28 05:50:07;;;;;;;1.83;1.70;;;21.70;1.00;;;;;;4988127;28;20928;-76
2021/06/28 05:52:36;;;;;;;1.73;1.40;;;21.70;99.90;;;;;;4983877;28;20452;-76
2021/06/28 05:55:06;;;;;;;2.50;1.80;;;21.70;99.90;;;;;;4968849;28;20512;-75
2021/06/28 05:57:34;;;;;;;1.60;1.30;;;21.70;99.90;;;;;;4963512;28;20467;-75
2021/06/28 06:00:03;;;;;;;1.80;1.70;;;21.80;99.90;;;;;;4979974;28;20442;-77
2021/06/28 06:02:31;;;;;;;7.33;1.80;;;21.80;99.90;;;;;;4987077;28;20500;-76
2021/06/28 06:05:00;;;;;;;4.30;1.83;;;21.80;99.90;;;;;;4988660;28;20468;-76
2021/06/28 06:07:28;;;;;;;2.43;2.23;;;21.90;99.90;;;;;;4987182;28;20451;-77
2021/06/28 06:09:56;;;;;;;1.87;1.77;;;21.90;1.00;;;;;;4973550;28;20497;-74
2021/06/28 06:12:25;;;;;;;4.30;2.30;;;21.90;99.90;;;;;;4973081;28;20547;-80
2021/06/28 06:14:54;;;;;;;1.63;1.53;;;22.00;1.00;;;;;;4975343;28;20457;-80
2021/06/28 06:17:22;;;;;;;1.60;1.50;;;22.10;99.90;;;;;;4973936;28;20447;-77
2021/06/28 06:19:50;;;;;;;4.40;1.67;;;22.20;99.90;;;;;;4971921;28;20454;-78
2021/06/28 06:22:18;;;;;;;2.40;1.50;;;22.30;99.90;;;;;;4961776;28;20550;-78
2021/06/28 06:24:47;;;;;;;1.63;1.53;;;22.30;99.90;;;;;;4970294;28;20499;-78
2021/06/28 06:27:15;;;;;;;1.60;1.50;;;22.30;99.90;;;;;;4974736;28;20531;-79
2021/06/28 06:29:45;;;;;;;4.60;2.20;;;22.40;1.00;;;;;;4971734;28;20453;-79
2021/06/28 06:32:14;;;;;;;2.07;1.47;;;22.40;24.60;;;;;;4972005;28;20499;-77
2021/06/28 06:34:42;;;;;;;1.80;1.40;;;22.40;1.00;;;;;;4974034;28;20977;-81
2021/06/28 06:37:10;;;;;;;6.80;2.50;;;22.40;1.00;;;;;;4973250;28;20441;-79
2021/06/28 06:39:38;;;;;;;2.47;1.50;;;22.50;44.70;;;;;;4968701;28;20489;-79
2021/06/28 06:42:07;;;;;;;2.13;1.93;;;22.50;1.00;;;;;;4967231;28;20589;-80
2021/06/28 06:44:35;;;;;;;1.60;1.50;;;22.50;1.00;;;;;;4969322;28;20455;-79
2021/06/28 06:47:05;;;;;;;1.60;1.50;;;22.50;99.90;;;;;;4968287;28;20480;-80
2021/06/28 06:49:33;;;;;;;2.70;1.70;;;22.60;99.90;;;;;;4967960;28;20546;-79
2021/06/28 06:52:02;;;;;;;2.43;1.73;;;22.70;99.90;;;;;;4969187;28;20552;-78
2021/06/28 06:54:30;;;;;;;6.30;1.53;;;22.70;1.00;;;;;;4970471;28;20551;-80
2021/06/28 06:56:58;;;;;;;1.80;1.70;;;22.80;1.00;;;;;;4970002;28;20509;-78
2021/06/28 06:59:26;;;;;;;2.20;1.37;;;22.90;99.90;;;;;;4969384;28;20461;-78
2021/06/28 07:01:54;;;;;;;1.83;1.30;;;22.90;99.90;;;;;;4972218;28;20495;-78
2021/06/28 07:04:24;;;;;;;1.50;1.40;;;22.90;52.10;;;;;;4971686;28;20470;-78
2021/06/28 07:06:52;;;;;;;3.10;1.50;;;23.00;1.00;;;;;;4974493;28;20779;-78
2021/06/28 07:09:22;;;;;;;2.17;1.50;;;23.10;1.00;;;;;;4971943;28;20490;-79
2021/06/28 07:11:50;;;;;;;2.77;1.40;;;23.10;6.70;;;;;;4972437;28;20475;-78
2021/06/28 07:14:18;;;;;;;1.80;1.40;;;23.20;1.00;;;;;;4972160;28;20546;-79
2021/06/28 07:16:47;;;;;;;2.00;1.73;;;23.30;1.00;;;;;;4961383;28;20470;-78
2021/06/28 07:19:15;;;;;;;2.37;1.40;;;23.40;1.00;;;;;;4973353;28;20461;-80
2021/06/28 07:21:48;;;;;;;1.60;1.50;;;23.40;1.00;;;;;;4973366;28;20502;-79
2021/06/28 07:24:16;;;;;;;1.93;1.50;;;23.40;1.00;;;;;;4971434;28;21073;-80
2021/06/28 07:26:45;;;;;;;1.80;1.50;;;23.40;1.00;;;;;;4974948;28;20471;-78
2021/06/28 07:29:13;;;;;;;2.00;1.40;;;23.50;1.00;;;;;;4974956;28;20478;-80
2021/06/28 07:31:45;;;;;;;1.50;1.40;;;23.50;21.40;;;;;;4976197;28;20482;-78
2021/06/28 07:34:14;;;;;;;1.43;1.33;;;23.60;99.90;;;;;;4982541;28;20955;-79
2021/06/28 07:36:46;;;;;;;1.50;1.40;;;23.60;99.90;;;;;;4974838;28;20533;-78
2021/06/28 07:39:15;;;;;;;1.50;1.40;;;23.60;99.90;;;;;;4975438;28;20456;-80
2021/06/28 07:41:43;;;;;;;1.40;1.30;;;23.70;99.90;;;;;;4966834;28;20471;-79
2021/06/28 07:44:11;;;;;;;1.67;1.40;;;23.70;99.90;;;;;;4955304;29;20464;-80
2021/06/28 07:46:40;;;;;;;2.73;1.50;;;23.80;99.90;;;;;;4972948;28;20546;-79
2021/06/28 07:49:08;;;;;;;1.73;1.40;;;23.80;99.90;;;;;;4975568;28;20440;-80
2021/06/28 07:51:37;;;;;;;1.83;1.73;;;23.90;99.90;;;;;;4976033;28;20466;-79
2021/06/28 07:54:08;;;;;;;2.10;1.90;;;23.90;99.90;;;;;;4974605;28;20439;-80
2021/06/28 07:56:37;;;;;;;1.90;1.50;;;24.00;99.90;;;;;;4974582;28;20947;-78
2021/06/28 07:59:05;;;;;;;1.80;1.70;;;24.00;99.90;;;;;;4973703;28;20483;-79
2021/06/28 08:01:33;;;;;;;1.60;1.47;;;24.00;99.90;;;;;;4971992;28;21041;-80
2021/06/28 08:04:02;;;;;;;1.83;1.73;;;24.10;99.90;;;;;;4974371;28;20482;-79
2021/06/28 08:06:31;;;;;;;1.53;1.43;;;24.10;99.90;;;;;;4975181;28;20478;-78
2021/06/28 08:08:59;;;;;;;1.87;1.43;;;24.10;99.90;;;;;;4972972;28;20493;-81
2021/06/28 08:11:29;;;;;;;1.60;1.50;;;24.10;99.90;;;;;;4972050;28;20486;-81
2021/06/28 08:13:57;;;;;;;1.80;1.50;;;24.10;99.90;;;;;;4969898;28;20459;-80
2021/06/28 08:16:26;;;;;;;1.97;1.43;;;24.20;99.90;;;;;;4973155;28;20470;-78
2021/06/28 08:18:54;;;;;;;2.53;1.70;;;24.20;20.90;;;;;;4969641;28;20550;-79
2021/06/28 08:21:34;;;;;;;1.17;1.17;;;24.20;99.90;;;;;;4970540;28;20538;-81
2021/06/28 08:24:04;;;;;;;1.50;1.40;;;24.30;1.00;;;;;;4982364;28;20801;-83
2021/06/28 08:26:34;;;;;;;1.70;1.60;;;24.30;1.00;;;;;;4953842;28;20987;-80
2021/06/28 08:29:06;;;;;;;1.60;1.20;;;24.30;1.00;;;;;;4962452;28;20463;-79
2021/06/28 08:31:37;;;;;;;1.27;1.27;;;24.40;1.00;;;;;;4972014;28;20483;-80
2021/06/28 08:34:12;;;;;;;4.03;2.37;;;24.40;1.00;;;;;;4968779;28;21010;-78
2021/06/28 08:36:40;;;;;;;6.63;3.33;;;24.50;1.00;;;;;;4968837;28;20488;-83
2021/06/28 08:39:09;;;;;;;2.00;1.63;;;24.50;1.00;;;;;;4970624;28;20455;-80
2021/06/28 08:41:42;;;;;;;1.73;1.50;;;24.50;1.00;;;;;;4969434;28;20512;-83
2021/06/28 08:44:12;;;;;;;2.97;1.90;;;24.60;1.00;;;;;;4970440;28;20452;-80
2021/06/28 08:46:42;;;;;;;1.93;1.30;;;24.60;1.00;;;;;;4977934;28;20486;-82
2021/06/28 08:49:11;;;;;;;2.03;1.33;;;24.60;1.00;;;;;;4972048;28;20439;-80
2021/06/28 08:51:39;;;;;;;1.90;1.80;;;24.60;1.00;;;;;;4957675;28;20483;-80
2021/06/28 08:54:09;;;;;;;1.60;1.50;;;24.70;1.00;;;;;;4970436;28;20463;-80
2021/06/28 08:56:43;;;;;;;1.83;1.50;;;24.70;1.00;;;;;;4967923;28;21027;-82
2021/06/28 08:59:17;;;;;;;1.63;1.53;;;24.80;1.00;;;;;;4969147;28;20474;-81
2021/06/28 09:01:46;;;;;;;1.77;1.60;;;24.80;1.00;;;;;;4969786;28;20479;-81
2021/06/28 09:04:14;;;;;;;1.47;1.37;;;24.80;1.00;;;;;;4965681;28;20812;-80
2021/06/28 09:06:44;;;;;;;2.27;1.50;;;24.80;1.00;;;;;;4961750;28;20497;-83
2021/06/28 09:09:14;;;;;;;1.80;1.70;;;24.90;1.00;;;;;;4969960;28;20459;-81
2021/06/28 09:11:46;;;;;;;1.63;1.37;;;24.90;1.00;;;;;;4971218;28;20467;-80
2021/06/28 09:14:16;;;;;;;1.90;1.80;;;25.00;1.00;;;;;;4970745;28;20472;-80
2021/06/28 09:16:46;;;;;;;1.80;1.70;;;25.10;1.00;;;;;;4963659;28;20464;-77
2021/06/28 09:19:17;;;;;;;1.70;1.60;;;25.10;1.00;;;;;;4969797;28;20542;-79
2021/06/28 09:21:49;;;;;;;1.63;1.50;;;25.20;1.00;;;;;;4973790;28;20706;-80
2021/06/28 09:24:26;;;;;;;1.60;1.40;;;25.30;1.00;;;;;;4959504;28;20472;-82
2021/06/28 09:26:58;;;;;;;3.10;1.40;;;25.40;1.00;;;;;;4961723;28;21000;-80
2021/06/28 09:29:34;;;;;;;1.53;1.27;;;25.40;1.00;;;;;;4969613;28;20467;-79
2021/06/28 09:32:09;;;;;;;1.40;1.30;;;25.40;1.00;;;;;;4971333;28;21010;-80
2021/06/28 09:34:38;;;;;;;2.10;1.60;;;25.40;1.00;;;;;;4968007;28;20981;-81
2021/06/28 09:37:13;;;;;;;1.63;1.53;;;25.40;1.00;;;;;;4959939;28;20467;-80
2021/06/28 09:39:42;;;;;;;1.60;1.50;;;25.40;1.00;;;;;;4971288;28;21069;-80
2021/06/28 09:42:15;;;;;;;3.47;1.70;;;25.50;1.00;;;;;;4965615;28;20482;-81
2021/06/28 09:44:52;;;;;;;1.93;1.60;;;25.50;1.00;;;;;;4974019;28;20463;-81
2021/06/28 09:47:22;;;;;;;2.67;2.00;;;25.60;1.00;;;;;;4970467;28;20483;-84
2021/06/28 09:50:03;;;;;;;1.53;1.43;;;25.60;1.00;;;;;;4973175;28;20451;-82
2021/06/28 09:52:33;;;;;;;2.83;2.60;;;25.60;1.00;;;;;;4972672;28;21018;-80
2021/06/28 09:55:19;;;;;;;2.20;2.10;;;25.70;1.00;;;;;;4966262;28;20499;-81
2021/06/28 09:58:06;;;;;;;2.23;1.80;;;25.60;1.00;;;;;;4966664;28;20907;-81
2021/06/28 10:00:36;;;;;;;1.93;1.70;;;25.70;1.00;;;;;;4966729;28;20459;-83
2021/06/28 10:03:26;;;;;;;1.80;1.70;;;25.70;1.00;;;;;;4964788;28;20487;-80
2021/06/28 10:06:01;;;;;;;4.60;3.07;;;25.80;1.00;;;;;;4969967;28;20443;-83
2021/06/28 10:08:34;;;;;;;2.43;2.23;;;25.90;1.00;;;;;;4975442;28;20903;-81
2021/06/28 10:11:17;;;;;;;3.80;3.30;;;25.90;1.00;;;;;;4970342;28;20550;-80
2021/06/28 10:13:53;;;;;;;5.87;5.10;;;26.00;1.00;;;;;;4969833;28;20546;-82
2021/06/28 10:16:24;;;;;;;179.87;105.10;;;26.00;1.00;;;;;;4968353;28;20473;-79
2021/06/28 10:18:54;;;;;;;210.80;120.23;;;25.90;1.00;;;;;;4963387;28;20547;-81
2021/06/28 10:21:23;;;;;;;152.87;91.57;;;25.90;1.00;;;;;;4968844;28;20486;-81
2021/06/28 10:23:51;;;;;;;157.20;97.53;;;25.90;1.00;;;;;;4985080;28;20469;-81
2021/06/28 10:26:19;;;;;;;55.17;36.33;;;25.90;99.90;;;;;;4969409;28;20986;-79
2021/06/28 10:28:49;;;;;;;86.90;54.33;;;26.00;99.90;;;;;;4963844;28;21034;-81
2021/06/28 10:31:18;;;;;;;90.37;51.17;;;25.90;99.90;;;;;;4959059;28;20487;-81
2021/06/28 10:33:53;;;;;;;26.27;17.87;;;26.00;99.90;;;;;;4968908;28;20924;-81
2021/06/28 10:36:24;;;;;;;3.50;3.20;;;26.00;99.90;;;;;;4970074;28;20810;-80
2021/06/28 10:38:56;;;;;;;2.43;1.83;;;26.10;99.90;;;;;;4957338;28;20764;-81
2021/06/28 10:41:39;;;;;;;3.00;2.60;;;26.10;99.90;;;;;;4971673;28;20478;-81
2021/06/28 10:44:11;;;;;;;3.43;3.13;;;26.20;99.90;;;;;;4970514;28;20451;-81
2021/06/28 10:46:42;;;;;;;3.97;3.67;;;26.20;99.90;;;;;;4966995;28;20462;-79
2021/06/28 10:49:12;;;;;;;3.10;2.60;;;26.30;99.90;;;;;;4972833;28;20698;-79
2021/06/28 10:51:45;;;;;;;2.90;2.70;;;26.40;99.90;;;;;;4972827;28;21041;-81
2021/06/28 10:54:15;;;;;;;3.90;2.80;;;26.40;99.90;;;;;;4973362;28;20459;-80
2021/06/28 10:56:46;;;;;;;2.23;2.00;;;26.40;99.90;;;;;;4972753;28;20459;-82
2021/06/28 10:59:43;;;;;;;1.60;1.50;;;26.40;99.90;;;;;;4970742;28;20459;-78
2021/06/28 11:02:13;;;;;;;2.23;2.03;;;26.50;99.90;;;;;;4971983;28;20479;-81
2021/06/28 11:04:45;;;;;;;2.40;2.20;;;26.60;99.90;;;;;;4970886;28;20971;-79
2021/06/28 11:07:18;;;;;;;6.87;5.20;;;26.60;99.90;;;;;;4962254;28;20439;-80
2021/06/28 11:09:54;;;;;;;5.17;4.07;;;26.70;99.90;;;;;;4973201;28;20463;-79
2021/06/28 11:12:33;;;;;;;1.83;1.73;;;26.70;99.90;;;;;;4973314;28;21082;-80
2021/06/28 11:15:24;;;;;;;2.70;2.07;;;26.70;99.90;;;;;;4974262;28;20494;-80
2021/06/28 11:17:55;;;;;;;3.43;2.90;;;26.70;99.90;;;;;;4972732;28;20788;-81
2021/06/28 11:20:29;;;;;;;4.10;3.70;;;26.70;99.90;;;;;;4974610;28;20458;-82
2021/06/28 11:23:09;;;;;;;4.60;3.63;;;26.80;99.90;;;;;;4973794;28;20471;-82
2021/06/28 11:25:44;;;;;;;3.57;2.90;;;26.80;99.90;;;;;;4973193;28;20467;-80
2021/06/28 11:28:27;;;;;;;4.50;3.67;;;26.90;99.90;;;;;;4971702;28;20502;-80
2021/06/28 11:31:02;;;;;;;3.67;3.20;;;26.90;99.90;;;;;;4973118;28;20530;-79
2021/06/28 11:33:43;;;;;;;3.20;2.80;;;26.90;99.90;;;;;;4967781;28;20518;-81
2021/06/28 11:36:34;;;;;;;2.43;2.33;;;26.90;99.90;;;;;;4973136;28;20447;-82
2021/06/28 11:39:06;;;;;;;2.03;1.90;;;26.90;99.90;;;;;;4973093;28;20540;-80
2021/06/28 11:41:35;;;;;;;2.70;2.50;;;27.00;99.90;;;;;;4972001;28;20909;-80
2021/06/28 11:44:06;;;;;;;2.60;2.40;;;27.00;99.90;;;;;;4970568;28;20494;-82
2021/06/28 11:46:50;;;;;;;4.90;3.40;;;27.00;99.90;;;;;;4972425;28;20486;-80
2021/06/28 11:49:24;;;;;;;2.03;1.93;;;27.00;99.90;;;;;;4970556;28;20506;-80
2021/06/28 11:51:54;;;;;;;3.00;2.70;;;27.00;99.90;;;;;;4972453;28;20792;-80
2021/06/28 11:54:24;;;;;;;3.67;2.87;;;27.10;99.90;;;;;;4971777;28;20470;-79
2021/06/28 11:56:56;;;;;;;2.60;2.40;;;27.10;99.90;;;;;;4972351;28;20532;-82
2021/06/28 11:59:29;;;;;;;3.30;3.10;;;27.10;99.90;;;;;;4986954;28;20447;-78
2021/06/28 12:02:02;;;;;;;3.10;2.90;;;27.10;99.90;;;;;;4973572;28;20507;-79
2021/06/28 12:04:32;;;;;;;6.03;3.63;;;27.10;99.90;;;;;;4973090;28;20973;-79
2021/06/28 12:07:03;;;;;;;2.40;2.20;;;27.20;99.90;;;;;;4968215;28;21026;-79
2021/06/28 12:09:33;;;;;;;2.60;2.40;;;27.20;99.90;;;;;;4970498;28;20471;-79
2021/06/28 12:12:07;;;;;;;2.63;2.43;;;27.20;99.90;;;;;;4969616;28;20553;-80
2021/06/28 12:14:39;;;;;;;2.50;2.30;;;27.20;99.90;;;;;;4969348;28;20836;-80
2021/06/28 12:17:15;;;;;;;2.43;2.23;;;27.20;99.90;;;;;;4971298;28;20863;-79
2021/06/28 12:19:44;;;;;;;3.20;2.90;;;27.30;99.90;;;;;;4970932;28;20450;-81
2021/06/28 12:22:14;;;;;;;2.63;2.43;;;27.30;99.90;;;;;;4970322;28;20537;-79
2021/06/28 12:24:43;;;;;;;2.70;2.50;;;27.30;99.90;;;;;;4961352;28;20466;-79
2021/06/28 12:27:13;;;;;;;4.87;4.47;;;27.40;99.90;;;;;;4971288;28;20459;-79
2021/06/28 12:29:43;;;;;;;3.60;3.30;;;27.40;99.90;;;;;;4966303;28;20472;-80
2021/06/28 12:32:22;;;;;;;3.03;2.83;;;27.40;99.90;;;;;;4964671;28;20491;-79
2021/06/28 12:34:55;;;;;;;3.33;2.70;;;27.40;99.90;;;;;;4970089;28;20463;-79
2021/06/28 12:37:26;;;;;;;4.90;4.17;;;27.50;99.90;;;;;;4970132;28;20455;-80
2021/06/28 12:40:09;;;;;;;2.90;2.70;;;27.50;99.90;;;;;;4968816;28;20462;-78
2021/06/28 12:42:40;;;;;;;3.63;3.27;;;27.50;99.90;;;;;;4963872;28;20471;-80
2021/06/28 12:45:10;;;;;;;2.90;2.70;;;27.50;99.90;;;;;;4964082;28;20455;-79
2021/06/28 12:47:41;;;;;;;3.00;2.80;;;27.50;99.90;;;;;;4960810;28;20463;-78
2021/06/28 12:50:14;;;;;;;3.30;3.00;;;27.60;99.90;;;;;;4967132;28;20598;-79
2021/06/28 12:52:43;;;;;;;2.50;2.30;;;27.60;99.90;;;;;;4970340;28;20483;-77
2021/06/28 12:55:20;;;;;;;3.33;3.07;;;27.50;99.90;;;;;;4968876;28;20466;-80
2021/06/28 12:57:59;;;;;;;4.23;2.40;;;27.60;99.90;;;;;;4964401;28;20550;-80
2021/06/28 13:00:30;;;;;;;3.27;2.97;;;27.60;99.90;;;;;;4966294;28;20503;-80
2021/06/28 13:03:03;;;;;;;2.43;2.23;;;27.60;99.90;;;;;;4969781;28;20487;-79
2021/06/28 13:05:47;;;;;;;4.53;3.37;;;27.60;99.90;;;;;;4971080;28;20459;-80
2021/06/28 13:08:22;;;;;;;2.97;2.50;;;27.60;99.90;;;;;;4971148;28;20903;-80